createdAt,value
2022-12-06T00:02:10.437Z,101083.59
2022-12-06T00:04:37.095Z,101077.31
2022-12-06T00:07:03.583Z,101077.03
2022-12-06T00:09:31.726Z,101077.00
2022-12-06T00:11:59.324Z,101083.00
2022-12-06T00:14:27.749Z,101081.44
2022-12-06T00:16:54.464Z,101085.06
2022-12-06T00:19:23.372Z,101081.53
2022-12-06T00:21:49.835Z,101077.28
2022-12-06T00:24:18.949Z,101079.09
2022-12-06T00:26:47.373Z,101081.16
2022-12-06T00:29:16.863Z,101084.75
2022-12-06T00:31:43.628Z,101088.44
2022-12-06T00:34:10.139Z,101088.34
2022-12-06T00:36:39.146Z,101087.75
2022-12-06T00:39:08.617Z,101085.94
2022-12-06T00:41:35.510Z,101085.66
2022-12-06T00:44:02.237Z,101078.88
2022-12-06T00:46:30.811Z,101076.84
2022-12-06T00:48:59.406Z,101072.09
2022-12-06T00:51:28.633Z,101071.06
2022-12-06T00:53:55.598Z,101069.84
2022-12-06T00:56:22.409Z,101076.88
2022-12-06T00:58:48.858Z,101076.00
2022-12-06T01:01:19.221Z,101076.34
2022-12-06T01:03:47.631Z,101064.94
2022-12-06T01:06:15.866Z,101068.41
2022-12-06T01:08:43.042Z,101064.16
2022-12-06T01:11:10.490Z,101059.50
2022-12-06T01:13:37.490Z,101054.25
2022-12-06T01:16:08.905Z,101055.00
2022-12-06T01:18:35.897Z,101061.50
2022-12-06T01:21:06.904Z,101057.72
2022-12-06T01:23:33.662Z,101070.19
2022-12-06T01:26:00.160Z,101054.91
2022-12-06T01:28:26.853Z,101053.53
2022-12-06T01:30:53.577Z,101057.13
2022-12-06T01:33:20.109Z,101054.50
2022-12-06T01:35:46.643Z,101059.94
2022-12-06T01:38:13.264Z,101057.38
2022-12-06T01:40:42.006Z,101062.91
2022-12-06T01:43:29.999Z,101059.34
2022-12-06T01:45:58.318Z,101058.31
2022-12-06T01:48:26.554Z,101064.78
2022-12-06T01:50:56.263Z,101067.13
2022-12-06T01:53:25.858Z,101058.28
2022-12-06T01:55:53.604Z,101053.50
2022-12-06T01:58:25.182Z,101066.50
2022-12-06T02:00:51.752Z,101057.53
2022-12-06T02:03:22.784Z,101058.97
2022-12-06T02:09:36.758Z,101057.81
2022-12-06T02:12:03.443Z,101055.38
2022-12-06T02:14:33.449Z,101048.06
2022-12-06T02:17:17.907Z,101047.28
2022-12-06T02:20:12.352Z,101042.16
2022-12-06T02:23:17.835Z,101029.41
2022-12-06T02:26:18.783Z,101032.63
2022-12-06T02:29:46.649Z,101027.31
2022-12-06T02:32:26.649Z,101031.75
2022-12-06T02:35:09.305Z,101025.81
2022-12-06T02:37:43.529Z,101024.13
2022-12-06T02:40:15.614Z,101027.00
2022-12-06T02:42:47.326Z,101026.19
2022-12-06T02:45:21.221Z,101021.22
2022-12-06T02:47:49.987Z,101021.94
2022-12-06T02:50:28.104Z,101017.47
2022-12-06T02:52:59.293Z,101016.34
2022-12-06T02:55:27.394Z,101011.56
2022-12-06T02:57:56.930Z,101016.69
2022-12-06T03:00:35.615Z,101017.59
2022-12-06T03:03:39.347Z,101027.72
2022-12-06T03:06:21.220Z,101014.91
2022-12-06T03:09:05.201Z,101015.13
2022-12-06T03:11:50.061Z,101011.75
2022-12-06T03:14:23.340Z,101009.72
2022-12-06T03:17:05.831Z,101002.34
2022-12-06T03:19:36.677Z,100996.91
2022-12-06T03:22:16.271Z,100991.75
2022-12-06T03:24:44.215Z,100990.28
2022-12-06T03:27:15.590Z,100984.13
2022-12-06T03:29:47.725Z,100985.69
2022-12-06T03:32:17.527Z,100984.06
2022-12-06T03:34:48.971Z,100969.50
2022-12-06T03:37:21.432Z,100984.41
2022-12-06T03:40:06.296Z,100974.25
2022-12-06T03:42:33.454Z,100979.56
2022-12-06T03:45:00.676Z,100976.47
2022-12-06T03:47:37.147Z,100976.59
2022-12-06T03:50:13.964Z,100974.13
2022-12-06T03:52:40.620Z,100965.66
2022-12-06T03:55:07.617Z,100979.06
2022-12-06T03:57:34.809Z,100973.81
2022-12-06T04:00:01.714Z,100966.22
2022-12-06T04:02:28.253Z,100966.81
2022-12-06T04:04:54.719Z,100965.50
2022-12-06T04:07:21.511Z,100969.03
2022-12-06T04:10:03.062Z,100966.16
2022-12-06T04:12:50.260Z,100958.00
2022-12-06T04:15:17.927Z,100964.38
2022-12-06T04:18:03.093Z,100962.75
2022-12-06T04:20:50.586Z,100944.59
2022-12-06T04:23:18.633Z,100957.47
2022-12-06T04:25:45.180Z,100951.66
2022-12-06T04:28:30.296Z,100952.63
2022-12-06T04:31:21.497Z,100948.13
2022-12-06T04:34:07.279Z,100936.31
2022-12-06T04:36:52.225Z,100932.72
2022-12-06T04:39:21.059Z,100932.00
2022-12-06T04:42:06.881Z,100926.56
2022-12-06T04:44:33.446Z,100924.88
2022-12-06T04:47:00.302Z,100919.22
2022-12-06T04:49:26.906Z,100923.09
2022-12-06T04:51:54.700Z,100921.25
2022-12-06T04:54:22.187Z,100918.31
2022-12-06T04:56:48.920Z,100913.00
2022-12-06T04:59:15.576Z,100918.97
2022-12-06T05:01:42.057Z,100913.09
2022-12-06T05:04:08.898Z,100916.13
2022-12-06T05:06:35.493Z,100903.94
2022-12-06T05:09:03.212Z,100911.22
2022-12-06T05:11:29.790Z,100912.72
2022-12-06T05:13:56.438Z,100911.56
2022-12-06T05:16:23.004Z,100916.28
2022-12-06T05:18:49.679Z,100912.59
2022-12-06T05:21:19.202Z,100916.13
2022-12-06T05:23:46.519Z,100912.25
2022-12-06T05:26:18.363Z,100919.13
2022-12-06T05:28:47.517Z,100913.66
2022-12-06T05:31:14.845Z,100904.59
2022-12-06T05:33:41.579Z,100909.38
2022-12-06T05:36:16.129Z,100907.81
2022-12-06T05:38:45.797Z,100912.16
2022-12-06T05:41:16.661Z,100907.25
2022-12-06T05:43:43.174Z,100906.66
2022-12-06T05:46:09.762Z,100897.47
2022-12-06T05:48:36.229Z,100914.28
2022-12-06T05:51:03.402Z,100907.75
2022-12-06T05:53:30.303Z,100903.63
2022-12-06T05:55:57.377Z,100902.16
2022-12-06T05:58:24.582Z,100913.50
2022-12-06T06:00:51.144Z,100909.97
2022-12-06T06:03:18.519Z,100901.38
2022-12-06T06:05:50.777Z,100904.22
2022-12-06T06:08:18.318Z,100910.84
2022-12-06T06:10:45.162Z,100915.72
2022-12-06T06:13:11.703Z,100907.97
2022-12-06T06:15:38.748Z,100911.09
2022-12-06T06:18:05.438Z,100900.59
2022-12-06T06:20:32.213Z,100904.63
2022-12-06T06:22:58.719Z,100906.69
2022-12-06T06:25:25.324Z,100903.66
2022-12-06T06:27:51.768Z,100904.97
2022-12-06T06:30:18.900Z,100907.97
2022-12-06T06:32:45.693Z,100906.88
2022-12-06T06:35:12.453Z,100913.41
2022-12-06T06:37:38.988Z,100915.84
2022-12-06T06:40:06.137Z,100919.69
2022-12-06T06:42:32.844Z,100925.38
2022-12-06T06:44:59.525Z,100923.66
2022-12-06T06:47:26.119Z,100918.84
2022-12-06T06:49:52.762Z,100916.38
2022-12-06T06:52:20.028Z,100913.91
2022-12-06T06:54:46.492Z,100913.69
2022-12-06T06:57:17.803Z,100916.44
2022-12-06T06:59:45.584Z,100918.34
2022-12-06T07:02:13.944Z,100910.66
2022-12-06T07:04:41.222Z,100911.81
2022-12-06T07:07:08.077Z,100917.53
2022-12-06T07:09:38.143Z,100913.03
2022-12-06T07:12:05.162Z,100917.72
2022-12-06T07:14:31.900Z,100906.22
2022-12-06T07:16:58.595Z,100910.56
2022-12-06T07:19:25.512Z,100921.19
2022-12-06T07:21:51.962Z,100914.81
2022-12-06T07:24:18.501Z,100924.25
2022-12-06T07:26:45.116Z,100923.66
2022-12-06T07:29:11.753Z,100919.81
2022-12-06T07:31:40.295Z,100917.28
2022-12-06T07:34:07.261Z,100913.66
2022-12-06T07:36:33.804Z,100922.31
2022-12-06T07:39:00.925Z,100926.22
2022-12-06T07:41:48.454Z,100924.91
2022-12-06T07:44:35.040Z,100923.75
2022-12-06T07:47:02.491Z,100925.38
2022-12-06T07:49:29.459Z,100922.16
2022-12-06T07:51:56.385Z,100923.56
2022-12-06T07:54:24.359Z,100926.13
2022-12-06T07:56:51.199Z,100918.19
2022-12-06T07:59:17.861Z,100925.75
2022-12-06T08:01:45.094Z,100928.75
2022-12-06T08:04:12.240Z,100920.47
2022-12-06T08:06:39.772Z,100920.66
2022-12-06T08:09:07.192Z,100918.00
2022-12-06T08:11:34.321Z,100923.09
2022-12-06T08:14:00.864Z,100930.09
2022-12-06T08:16:27.646Z,100924.81
2022-12-06T08:18:55.394Z,100927.44
2022-12-06T08:21:22.197Z,100923.28
2022-12-06T08:23:48.769Z,100928.75
2022-12-06T08:26:16.594Z,100931.41
2022-12-06T08:28:43.542Z,100926.72
2022-12-06T08:31:19.477Z,100921.41
2022-12-06T08:33:46.902Z,100927.06
2022-12-06T08:36:19.908Z,100924.06
2022-12-06T08:38:47.600Z,100924.81
2022-12-06T08:41:33.748Z,100926.59
2022-12-06T08:44:02.038Z,100916.13
2022-12-06T08:46:30.094Z,100930.75
2022-12-06T08:48:57.122Z,100924.13
2022-12-06T08:51:24.424Z,100922.28
2022-12-06T08:53:55.523Z,100918.69
2022-12-06T08:56:23.325Z,100921.31
2022-12-06T08:58:50.382Z,100918.13
2022-12-06T09:01:19.903Z,100921.41
2022-12-06T09:03:46.848Z,100926.13
2022-12-06T09:06:14.077Z,100922.81
2022-12-06T09:08:41.136Z,100920.56
2022-12-06T09:11:08.394Z,100916.91
2022-12-06T09:13:36.988Z,100918.56
2022-12-06T09:16:23.950Z,100920.09
2022-12-06T09:18:54.462Z,100923.31
2022-12-06T09:21:25.156Z,100921.34
2022-12-06T09:23:55.706Z,100912.00
2022-12-06T09:26:22.290Z,100911.63
2022-12-06T09:28:50.884Z,100911.97
2022-12-06T09:31:19.180Z,100905.47
2022-12-06T09:33:46.966Z,100916.13
2022-12-06T09:36:20.026Z,100911.44
2022-12-06T09:38:51.791Z,100907.06
2022-12-06T09:41:30.551Z,100905.34
2022-12-06T09:44:10.363Z,100906.56
2022-12-06T09:47:16.707Z,100904.59
2022-12-06T09:49:49.217Z,100902.16
2022-12-06T09:52:47.877Z,100900.28
2022-12-06T09:55:35.979Z,100897.81
2022-12-06T09:58:20.910Z,100901.78
2022-12-06T10:00:54.092Z,100890.53
2022-12-06T10:03:35.777Z,100888.75
2022-12-06T10:06:03.793Z,100886.13
2022-12-06T10:08:51.814Z,100891.84
2022-12-06T10:11:31.766Z,100885.66
2022-12-06T10:14:26.991Z,100884.22
2022-12-06T10:17:25.414Z,100881.94
2022-12-06T10:20:29.456Z,100878.66
2022-12-06T10:23:37.357Z,100877.47
2022-12-06T10:26:29.706Z,100878.56
2022-12-06T10:29:14.214Z,100871.41
2022-12-06T10:32:01.095Z,100873.75
2022-12-06T10:34:58.205Z,100858.19
2022-12-06T10:37:46.195Z,100861.88
2022-12-06T10:40:21.688Z,100859.41
2022-12-06T10:42:55.961Z,100864.72
2022-12-06T10:45:46.597Z,100863.25
2022-12-06T10:48:21.743Z,100858.56
2022-12-06T10:50:55.319Z,100850.56
2022-12-06T10:53:28.380Z,100853.59
2022-12-06T10:56:01.224Z,100858.53
2022-12-06T10:59:24.022Z,100845.88
2022-12-06T11:01:53.248Z,100854.59
2022-12-06T11:04:26.287Z,100850.28
2022-12-06T11:06:58.907Z,100856.81
2022-12-06T11:09:40.645Z,100845.50
2022-12-06T11:12:33.943Z,100849.75
2022-12-06T11:15:15.473Z,100842.88
2022-12-06T11:17:47.902Z,100838.06
2022-12-06T11:20:29.775Z,100835.31
2022-12-06T11:23:06.662Z,100841.25
2022-12-06T11:25:43.368Z,100839.69
2022-12-06T11:28:24.727Z,100830.63
2022-12-06T11:30:54.222Z,100836.28
2022-12-06T11:33:26.266Z,100825.66
2022-12-06T11:35:52.917Z,100825.50
2022-12-06T11:38:19.578Z,100833.06
2022-12-06T11:40:50.450Z,100823.06
2022-12-06T11:43:27.248Z,100823.16
2022-12-06T11:45:56.388Z,100816.22
2022-12-06T11:48:26.180Z,100820.94
2022-12-06T11:50:53.436Z,100813.53
2022-12-06T11:53:31.051Z,100812.97
2022-12-06T11:56:03.938Z,100809.44
2022-12-06T11:58:42.240Z,100807.81
2022-12-06T12:01:14.203Z,100811.78
2022-12-06T12:03:44.113Z,100806.84
2022-12-06T12:06:21.922Z,100808.16
2022-12-06T12:08:58.338Z,100797.84
2022-12-06T12:11:28.032Z,100799.31
2022-12-06T12:13:59.384Z,100800.44
2022-12-06T12:16:37.785Z,100794.31
2022-12-06T12:19:22.001Z,100792.75
2022-12-06T12:21:54.019Z,100792.09
2022-12-06T12:25:17.260Z,100789.47
2022-12-06T12:27:51.285Z,100795.81
2022-12-06T12:30:25.499Z,100788.81
2022-12-06T12:33:16.398Z,100797.66
2022-12-06T12:35:46.233Z,100791.34
2022-12-06T12:38:31.449Z,100785.44
2022-12-06T12:41:18.621Z,100784.94
2022-12-06T12:44:20.825Z,100791.88
2022-12-06T12:46:49.292Z,100777.63
2022-12-06T12:49:28.344Z,100778.59
2022-12-06T12:51:55.533Z,100783.28
2022-12-06T12:54:32.272Z,100776.56
2022-12-06T12:57:02.371Z,100777.06
2022-12-06T12:59:38.562Z,100769.75
2022-12-06T13:02:27.239Z,100771.38
2022-12-06T13:05:32.613Z,100773.13
2022-12-06T13:07:50.725Z,100773.38
2022-12-06T13:10:36.376Z,100773.38
2022-12-06T13:13:10.751Z,100771.22
2022-12-06T13:15:40.477Z,100776.56
2022-12-06T13:18:19.188Z,100774.63
2022-12-06T13:20:47.575Z,100776.00
2022-12-06T13:23:19.000Z,100772.44
2022-12-06T13:25:50.577Z,100772.31
2022-12-06T13:28:19.220Z,100769.03
2022-12-06T13:30:49.365Z,100762.59
2022-12-06T13:33:26.281Z,100762.66
2022-12-06T13:36:09.286Z,100768.22
2022-12-06T13:38:38.817Z,100759.94
2022-12-06T13:41:15.098Z,100759.94
2022-12-06T13:43:49.154Z,100764.03
2022-12-06T13:46:26.398Z,100756.53
2022-12-06T13:48:58.755Z,100755.81
2022-12-06T13:51:31.149Z,100755.91
2022-12-06T13:54:04.091Z,100750.34
2022-12-06T13:56:33.664Z,100755.25
2022-12-06T13:59:12.710Z,100750.78
2022-12-06T14:01:47.139Z,100754.53
2022-12-06T14:07:05.054Z,100760.50
2022-12-06T14:09:44.386Z,100757.66
2022-12-06T14:12:20.984Z,100757.50
2022-12-06T14:15:01.936Z,100755.06
2022-12-06T14:20:30.413Z,100754.13
2022-12-06T14:22:57.162Z,100757.88
2022-12-06T14:25:28.330Z,100752.59
2022-12-06T14:28:04.043Z,100752.78
2022-12-06T14:30:30.637Z,100749.38
2022-12-06T14:32:58.887Z,100747.94
2022-12-06T14:35:28.946Z,100745.53
2022-12-06T14:37:59.478Z,100745.63
2022-12-06T14:41:00.078Z,100754.91
2022-12-06T14:43:30.098Z,100749.38
2022-12-06T14:46:00.060Z,100748.22
2022-12-06T14:48:27.089Z,100750.03
2022-12-06T14:51:02.087Z,100749.88
2022-12-06T14:53:36.669Z,100743.75
2022-12-06T14:56:06.614Z,100754.84
2022-12-06T14:58:51.917Z,100750.03
2022-12-06T15:01:24.611Z,100740.34
2022-12-06T15:03:57.863Z,100748.06
2022-12-06T15:06:26.509Z,100748.69
2022-12-06T15:08:59.235Z,100748.72
2022-12-06T15:11:50.433Z,100755.66
2022-12-06T15:14:18.481Z,100753.16
2022-12-06T15:16:55.992Z,100748.91
2022-12-06T15:19:22.940Z,100744.13
2022-12-06T15:21:55.416Z,100750.38
2022-12-06T15:24:24.389Z,100753.81
2022-12-06T15:26:51.482Z,100754.91
2022-12-06T15:29:18.255Z,100745.16
2022-12-06T15:31:52.279Z,100747.09
2022-12-06T15:34:29.158Z,100747.88
2022-12-06T15:37:15.532Z,100752.31
2022-12-06T15:39:44.277Z,100740.59
2022-12-06T15:42:28.819Z,100740.34
2022-12-06T15:44:55.360Z,100745.47
2022-12-06T15:47:21.825Z,100737.47
2022-12-06T15:49:51.306Z,100736.41
2022-12-06T15:52:23.245Z,100746.84
2022-12-06T15:54:50.434Z,100740.78
2022-12-06T15:57:17.808Z,100738.97
2022-12-06T15:59:44.436Z,100735.81
2022-12-06T16:02:16.088Z,100748.22
2022-12-06T16:04:43.960Z,100742.53
2022-12-06T16:07:10.908Z,100747.38
2022-12-06T16:09:37.914Z,100746.19
2022-12-06T16:12:04.688Z,100747.22
2022-12-06T16:14:31.162Z,100753.44
2022-12-06T16:16:57.625Z,100750.63
2022-12-06T16:19:24.063Z,100748.94
2022-12-06T16:21:56.376Z,100754.78
2022-12-06T16:24:23.216Z,100751.09
2022-12-06T16:26:49.748Z,100749.78
2022-12-06T16:29:25.211Z,100740.84
2022-12-06T16:31:53.097Z,100744.66
2022-12-06T16:34:20.056Z,100745.16
2022-12-06T16:37:13.132Z,100754.47
2022-12-06T16:39:39.767Z,100744.50
2022-12-06T16:42:06.518Z,100737.88
2022-12-06T16:44:33.220Z,100746.09
2022-12-06T16:46:59.969Z,100744.59
2022-12-06T16:49:46.519Z,100743.28
2022-12-06T16:52:14.849Z,100744.09
2022-12-06T16:54:42.284Z,100747.03
2022-12-06T16:57:11.349Z,100744.91
2022-12-06T16:59:38.080Z,100753.03
2022-12-06T17:02:14.084Z,100758.91
2022-12-06T17:04:40.916Z,100749.81
2022-12-06T17:07:07.411Z,100757.56
2022-12-06T17:09:33.949Z,100750.88
2022-12-06T17:12:02.976Z,100756.66
2022-12-06T17:14:30.268Z,100746.13
2022-12-06T17:16:57.119Z,100751.16
2022-12-06T17:19:28.165Z,100751.78
2022-12-06T17:21:55.278Z,100757.75
2022-12-06T17:24:22.941Z,100754.41
2022-12-06T17:26:49.783Z,100757.50
2022-12-06T17:29:17.455Z,100756.41
2022-12-06T17:31:44.172Z,100758.22
2022-12-06T17:34:13.606Z,100756.47
2022-12-06T17:36:40.809Z,100753.44
2022-12-06T17:39:08.367Z,100766.72
2022-12-06T17:41:53.917Z,100750.09
2022-12-06T17:44:21.326Z,100762.53
2022-12-06T17:46:47.802Z,100768.78
2022-12-06T17:49:17.435Z,100766.19
2022-12-06T17:51:43.952Z,100766.63
2022-12-06T17:54:10.755Z,100764.72
2022-12-06T17:56:39.764Z,100768.53
2022-12-06T17:59:08.811Z,100760.72
2022-12-06T18:01:58.557Z,100765.38
2022-12-06T18:04:22.795Z,100764.94
2022-12-06T18:06:49.276Z,100762.66
2022-12-06T18:09:15.830Z,100769.81
2022-12-06T18:11:43.279Z,100764.19
2022-12-06T18:14:12.309Z,100762.34
2022-12-06T18:16:40.645Z,100772.59
2022-12-06T18:19:15.639Z,100765.75
2022-12-06T18:21:42.250Z,100770.28
2022-12-06T18:24:30.577Z,100763.34
2022-12-06T18:26:57.871Z,100768.97
2022-12-06T18:29:24.567Z,100760.94
2022-12-06T18:31:52.326Z,100766.03
2022-12-06T18:34:19.286Z,100762.66
2022-12-06T18:36:46.267Z,100758.97
2022-12-06T18:39:17.143Z,100748.66
2022-12-06T18:41:44.604Z,100758.53
2022-12-06T18:44:12.430Z,100758.81
2022-12-06T18:46:39.434Z,100748.50
2022-12-06T18:49:06.687Z,100751.38
2022-12-06T18:51:35.306Z,100753.38
2022-12-06T18:54:04.904Z,100749.25
2022-12-06T18:56:32.419Z,100753.25
2022-12-06T18:59:00.466Z,100746.16
2022-12-06T19:01:29.925Z,100741.31
2022-12-06T19:03:59.603Z,100745.94
2022-12-06T19:06:29.817Z,100738.75
2022-12-06T19:09:01.563Z,100746.66
2022-12-06T19:11:28.106Z,100746.28
2022-12-06T19:13:59.474Z,100735.13
2022-12-06T19:16:28.824Z,100741.19
2022-12-06T19:18:57.188Z,100749.13
2022-12-06T19:21:24.106Z,100746.59
2022-12-06T19:23:55.635Z,100742.25
2022-12-06T19:26:22.064Z,100740.03
2022-12-06T19:28:51.955Z,100742.59
2022-12-06T19:31:19.753Z,100740.78
2022-12-06T19:33:46.576Z,100736.56
2022-12-06T19:36:31.415Z,100739.81
2022-12-06T19:39:03.651Z,100741.94
2022-12-06T19:41:30.528Z,100739.41
2022-12-06T19:44:15.267Z,100734.72
2022-12-06T19:46:43.943Z,100739.81
2022-12-06T19:49:11.631Z,100745.97
2022-12-06T19:51:40.352Z,100739.41
2022-12-06T19:54:08.091Z,100736.56
2022-12-06T19:56:35.337Z,100728.72
2022-12-06T19:59:11.245Z,100736.47
2022-12-06T20:01:44.238Z,100731.19
2022-12-06T20:04:22.698Z,100737.44
2022-12-06T20:06:50.577Z,100732.66
2022-12-06T20:09:18.699Z,100737.72
2022-12-06T20:12:00.981Z,100734.34
2022-12-06T20:14:36.342Z,100731.16
2022-12-06T20:17:05.936Z,100729.69
2022-12-06T20:19:33.537Z,100724.41
2022-12-06T20:21:59.957Z,100733.72
2022-12-06T20:24:26.647Z,100725.88
2022-12-06T20:26:54.761Z,100730.44
2022-12-06T20:29:22.172Z,100719.22
2022-12-06T20:31:59.632Z,100719.34
2022-12-06T20:34:29.432Z,100724.16
2022-12-06T20:37:08.346Z,100721.66
2022-12-06T20:39:58.214Z,100723.75
2022-12-06T20:42:37.720Z,100729.88
2022-12-06T20:45:04.387Z,100722.16
2022-12-06T20:47:30.915Z,100715.50
2022-12-06T20:49:57.372Z,100709.56
2022-12-06T20:52:24.638Z,100709.16
2022-12-06T20:54:51.569Z,100705.91
2022-12-06T20:57:18.086Z,100711.91
2022-12-06T20:59:44.530Z,100708.28
2022-12-06T21:02:12.746Z,100700.75
2022-12-06T21:04:40.212Z,100706.09
2022-12-06T21:07:06.759Z,100701.13
2022-12-06T21:09:34.417Z,100699.09
2022-12-06T21:12:00.840Z,100698.88
2022-12-06T21:14:27.228Z,100700.19
2022-12-06T21:16:55.213Z,100700.75
2022-12-06T21:19:21.926Z,100702.75
2022-12-06T21:21:51.356Z,100702.84
2022-12-06T21:24:20.051Z,100699.47
2022-12-06T21:26:47.972Z,100696.91
2022-12-06T21:29:16.907Z,100699.72
2022-12-06T21:31:43.668Z,100705.09
2022-12-06T21:34:11.763Z,100711.69
2022-12-06T21:36:38.912Z,100715.84
2022-12-06T21:39:05.689Z,100708.88
2022-12-06T21:41:32.581Z,100709.00
2022-12-06T21:44:02.205Z,100709.94
2022-12-06T21:46:28.715Z,100698.25
2022-12-06T21:48:57.775Z,100704.47
2022-12-06T21:51:27.618Z,100702.03
2022-12-06T21:53:54.570Z,100698.44
2022-12-06T21:56:24.334Z,100708.84
2022-12-06T21:58:50.773Z,100705.94
2022-12-06T22:01:23.933Z,100709.13
2022-12-06T22:03:52.821Z,100709.53
2022-12-06T22:06:20.016Z,100713.06
2022-12-06T22:08:47.426Z,100707.38
2022-12-06T22:11:17.488Z,100711.00
2022-12-06T22:13:44.376Z,100709.81
2022-12-06T22:16:11.948Z,100713.13
2022-12-06T22:18:44.735Z,100708.16
2022-12-06T22:21:16.720Z,100707.09
2022-12-06T22:23:43.567Z,100709.72
2022-12-06T22:26:14.083Z,100704.69
2022-12-06T22:28:40.542Z,100699.72
2022-12-06T22:31:20.953Z,100683.84
2022-12-06T22:33:48.678Z,100694.31
2022-12-06T22:36:16.145Z,100687.59
2022-12-06T22:38:43.508Z,100698.72
2022-12-06T22:41:10.911Z,100694.38
2022-12-06T22:43:37.653Z,100690.59
2022-12-06T22:46:09.734Z,100688.19
2022-12-06T22:48:37.112Z,100690.06
2022-12-06T22:51:16.843Z,100696.63
2022-12-06T22:53:46.015Z,100684.56
2022-12-06T22:56:15.458Z,100693.22
2022-12-06T22:58:42.131Z,100681.97
2022-12-06T23:01:15.861Z,100681.75
2022-12-06T23:03:44.447Z,100688.13
2022-12-06T23:06:10.985Z,100684.97
2022-12-06T23:08:37.775Z,100679.81
2022-12-06T23:11:05.860Z,100676.66
2022-12-06T23:13:32.849Z,100669.38
2022-12-06T23:16:01.571Z,100667.19
2022-12-06T23:18:28.757Z,100666.94
2022-12-06T23:21:12.663Z,100664.56
2022-12-06T23:23:41.452Z,100680.00
2022-12-06T23:26:11.896Z,100673.38
2022-12-06T23:28:39.213Z,100672.84
2022-12-06T23:31:11.273Z,100675.69
2022-12-06T23:33:37.877Z,100679.47
2022-12-06T23:36:18.553Z,100670.16
2022-12-06T23:38:45.143Z,100667.41
2022-12-06T23:41:14.539Z,100678.19
2022-12-06T23:43:41.512Z,100673.38
2022-12-06T23:46:10.724Z,100675.91
2022-12-06T23:48:38.158Z,100671.13
2022-12-06T23:51:11.544Z,100665.47
2022-12-06T23:53:38.835Z,100664.22
2022-12-06T23:56:10.961Z,100661.34
2022-12-06T23:58:37.938Z,100668.91
